createdAt,value
2023-03-22T00:00:34.727Z,15.40
2023-03-22T00:01:34.713Z,16.30
2023-03-22T00:02:34.755Z,16.10
2023-03-22T00:03:34.717Z,16.10
2023-03-22T00:04:34.706Z,18.80
2023-03-22T00:05:34.649Z,16.00
2023-03-22T00:06:34.648Z,16.50
2023-03-22T00:07:34.644Z,16.00
2023-03-22T00:08:34.608Z,18.10
2023-03-22T00:09:34.609Z,16.30
2023-03-22T00:10:34.646Z,16.10
2023-03-22T00:11:34.608Z,14.90
2023-03-22T00:12:34.565Z,17.50
2023-03-22T00:13:35.711Z,16.00
2023-03-22T00:14:34.553Z,16.40
2023-03-22T00:15:34.519Z,17.00
2023-03-22T00:16:34.617Z,16.10
2023-03-22T00:17:34.498Z,16.60
2023-03-22T00:18:34.492Z,15.50
2023-03-22T00:19:34.463Z,15.60
2023-03-22T00:20:34.470Z,17.00
2023-03-22T00:21:34.452Z,17.10
2023-03-22T00:22:34.499Z,15.00
2023-03-22T00:23:34.433Z,18.20
2023-03-22T00:24:34.417Z,15.90
2023-03-22T00:25:34.396Z,16.70
2023-03-22T00:26:34.386Z,17.40
2023-03-22T00:27:34.377Z,18.00
2023-03-22T00:28:34.389Z,17.40
2023-03-22T00:29:34.357Z,16.60
2023-03-22T00:30:34.341Z,19.40
2023-03-22T00:31:34.378Z,16.60
2023-03-22T00:32:34.319Z,17.50
2023-03-22T00:33:34.308Z,16.40
2023-03-22T00:34:34.316Z,17.50
2023-03-22T00:35:34.328Z,17.00
2023-03-22T00:36:34.264Z,16.60
2023-03-22T00:37:34.275Z,15.70
2023-03-22T00:38:41.984Z,18.50
2023-03-22T00:39:34.225Z,15.80
2023-03-22T00:40:34.239Z,15.90
2023-03-22T00:41:34.211Z,16.70
2023-03-22T00:42:34.181Z,17.30
2023-03-22T00:43:34.178Z,15.90
2023-03-22T00:44:34.153Z,17.30
2023-03-22T00:45:34.149Z,15.80
2023-03-22T00:46:34.231Z,17.00
2023-03-22T00:47:34.137Z,16.90
2023-03-22T00:48:34.122Z,16.20
2023-03-22T00:49:34.101Z,17.00
2023-03-22T00:50:34.072Z,15.70
2023-03-22T00:51:34.061Z,15.80
2023-03-22T00:52:34.081Z,16.30
2023-03-22T00:53:34.061Z,16.70
2023-03-22T00:54:34.040Z,17.70
2023-03-22T00:55:34.023Z,17.30
2023-03-22T00:56:34.071Z,16.90
2023-03-22T00:57:34.038Z,17.00
2023-03-22T00:58:34.017Z,15.30
2023-03-22T00:59:33.976Z,16.20
2023-03-22T01:00:33.963Z,16.90
2023-03-22T01:01:34.013Z,18.00
2023-03-22T01:02:33.928Z,17.10
2023-03-22T01:03:33.941Z,15.70
2023-03-22T01:04:33.938Z,15.70
2023-03-22T01:05:33.885Z,17.20
2023-03-22T01:06:33.879Z,17.20
2023-03-22T01:07:33.860Z,16.60
2023-03-22T01:08:33.839Z,17.20
2023-03-22T01:09:33.873Z,18.20
2023-03-22T01:10:33.860Z,16.80
2023-03-22T01:11:33.810Z,16.70
2023-03-22T01:12:33.853Z,18.00
2023-03-22T01:13:33.804Z,16.80
2023-03-22T01:14:33.775Z,19.00
2023-03-22T01:15:33.764Z,16.70
2023-03-22T01:16:33.856Z,18.20
2023-03-22T01:17:33.733Z,16.90
2023-03-22T01:18:33.731Z,16.60
2023-03-22T01:19:33.711Z,17.50
2023-03-22T01:20:33.689Z,17.60
2023-03-22T01:21:33.694Z,18.40
2023-03-22T01:22:33.690Z,17.50
2023-03-22T01:23:33.656Z,16.70
2023-03-22T01:24:33.646Z,16.80
2023-03-22T01:25:33.613Z,15.70
2023-03-22T01:26:33.620Z,18.20
2023-03-22T01:27:33.597Z,16.60
2023-03-22T01:28:33.633Z,17.10
2023-03-22T01:29:33.591Z,15.60
2023-03-22T01:30:33.633Z,16.40
2023-03-22T01:31:33.560Z,18.00
2023-03-22T01:32:33.528Z,16.50
2023-03-22T01:33:33.534Z,17.50
2023-03-22T01:34:33.564Z,16.60
2023-03-22T01:35:33.554Z,18.40
2023-03-22T01:36:33.480Z,16.90
2023-03-22T01:37:33.469Z,17.70
2023-03-22T01:38:33.456Z,18.60
2023-03-22T01:39:33.440Z,16.60
2023-03-22T01:40:33.505Z,16.30
2023-03-22T01:41:33.421Z,17.00
2023-03-22T01:42:33.413Z,17.30
2023-03-22T01:43:33.397Z,19.00
2023-03-22T01:44:33.398Z,17.20
2023-03-22T01:45:33.364Z,17.60
2023-03-22T01:46:33.494Z,17.30
2023-03-22T01:47:33.349Z,17.50
2023-03-22T01:48:33.322Z,17.30
2023-03-22T01:49:33.329Z,18.10
2023-03-22T01:50:33.304Z,16.70
2023-03-22T01:51:33.310Z,15.50
2023-03-22T01:52:33.327Z,17.00
2023-03-22T01:53:33.270Z,17.80
2023-03-22T01:54:33.277Z,16.90
2023-03-22T01:55:33.257Z,18.20
2023-03-22T01:56:33.228Z,17.60
2023-03-22T01:57:33.234Z,18.20
2023-03-22T01:58:33.256Z,17.50
2023-03-22T01:59:33.187Z,19.20
2023-03-22T02:00:33.207Z,18.00
2023-03-22T02:01:33.214Z,17.60
2023-03-22T02:02:33.227Z,17.60
2023-03-22T02:03:33.172Z,17.60
2023-03-22T02:04:33.153Z,17.00
2023-03-22T02:05:33.127Z,18.30
2023-03-22T02:06:33.123Z,17.70
2023-03-22T02:07:33.088Z,17.70
2023-03-22T02:08:33.062Z,17.10
2023-03-22T02:09:33.070Z,18.10
2023-03-22T02:10:33.077Z,17.40
2023-03-22T02:11:33.047Z,17.80
2023-03-22T02:12:33.046Z,20.70
2023-03-22T02:13:33.014Z,19.60
2023-03-22T02:14:33.008Z,19.20
2023-03-22T02:15:33.065Z,17.50
2023-03-22T02:16:33.011Z,18.60
2023-03-22T02:17:32.982Z,18.60
2023-03-22T02:18:32.969Z,19.10
2023-03-22T02:19:32.933Z,19.00
2023-03-22T02:20:32.929Z,19.20
2023-03-22T02:21:32.913Z,21.20
2023-03-22T02:22:32.925Z,21.80
2023-03-22T02:23:32.889Z,18.80
2023-03-22T02:24:32.921Z,18.90
2023-03-22T02:25:32.874Z,20.20
2023-03-22T02:26:32.877Z,19.70
2023-03-22T02:27:32.847Z,20.20
2023-03-22T02:28:32.907Z,18.90
2023-03-22T02:29:33.024Z,21.20
2023-03-22T02:30:32.824Z,20.40
2023-03-22T02:31:32.863Z,21.60
2023-03-22T02:32:32.776Z,20.80
2023-03-22T02:33:32.757Z,19.70
2023-03-22T02:34:32.773Z,21.50
2023-03-22T02:35:32.833Z,19.60
2023-03-22T02:36:32.728Z,21.30
2023-03-22T02:37:32.719Z,20.10
2023-03-22T02:38:32.707Z,21.90
2023-03-22T02:39:32.694Z,20.40
2023-03-22T02:40:32.702Z,22.70
2023-03-22T02:41:32.665Z,21.80
2023-03-22T02:42:32.650Z,22.30
2023-03-22T02:43:32.640Z,24.00
2023-03-22T02:44:32.620Z,24.50
2023-03-22T02:45:32.605Z,22.80
2023-03-22T02:46:32.647Z,24.20
2023-03-22T02:47:32.569Z,26.80
2023-03-22T02:48:32.566Z,26.00
2023-03-22T02:49:32.545Z,22.90
2023-03-22T02:50:32.538Z,20.90
2023-03-22T02:51:32.547Z,22.60
2023-03-22T02:52:32.540Z,19.60
2023-03-22T02:53:32.519Z,21.60
2023-03-22T02:54:32.472Z,22.80
2023-03-22T02:55:32.457Z,23.20
2023-03-22T02:56:32.491Z,23.90
2023-03-22T02:57:32.440Z,24.60
2023-03-22T02:58:32.477Z,22.00
2023-03-22T02:59:32.414Z,26.00
2023-03-22T03:00:32.560Z,24.50
2023-03-22T03:01:32.397Z,25.30
2023-03-22T03:02:32.395Z,25.00
2023-03-22T03:03:32.374Z,23.50
2023-03-22T03:04:32.401Z,23.70
2023-03-22T03:05:32.329Z,23.60
2023-03-22T03:06:32.355Z,21.70
2023-03-22T03:07:32.332Z,21.80
2023-03-22T03:08:32.322Z,22.00
2023-03-22T03:09:32.290Z,22.90
2023-03-22T03:10:32.322Z,25.50
2023-03-22T03:11:32.491Z,22.90
2023-03-22T03:12:32.247Z,23.30
2023-03-22T03:13:32.269Z,20.40
2023-03-22T03:14:32.242Z,19.80
2023-03-22T03:15:32.209Z,18.60
2023-03-22T03:16:32.253Z,21.80
2023-03-22T03:17:32.201Z,19.60
2023-03-22T03:18:32.188Z,22.40
2023-03-22T03:19:32.191Z,20.70
2023-03-22T03:20:32.168Z,22.90
2023-03-22T03:21:32.147Z,22.30
2023-03-22T03:22:32.159Z,22.50
2023-03-22T03:23:32.103Z,24.20
2023-03-22T03:24:32.119Z,24.10
2023-03-22T03:25:32.078Z,24.00
2023-03-22T03:26:32.078Z,23.90
2023-03-22T03:27:32.054Z,25.30
2023-03-22T03:28:32.076Z,24.70
2023-03-22T03:29:32.051Z,23.60
2023-03-22T03:30:32.027Z,25.30
2023-03-22T03:31:32.055Z,24.60
2023-03-22T03:32:31.986Z,25.40
2023-03-22T03:33:31.977Z,26.50
2023-03-22T03:34:31.992Z,25.70
2023-03-22T03:35:31.982Z,26.50
2023-03-22T03:36:31.932Z,28.70
2023-03-22T03:37:31.918Z,28.10
2023-03-22T03:38:31.929Z,29.50
2023-03-22T03:39:31.923Z,29.50
2023-03-22T03:40:31.945Z,29.90
2023-03-22T03:41:52.919Z,29.60
2023-03-22T03:50:22.984Z,30.40
2023-03-22T03:50:28.438Z,30.20
2023-03-22T03:51:28.947Z,27.90
2023-03-22T03:52:28.370Z,27.20
2023-03-22T03:53:28.355Z,22.20
2023-03-22T03:54:28.352Z,20.70
2023-03-22T03:55:28.342Z,20.70
2023-03-22T03:56:28.339Z,23.50
2023-03-22T03:57:28.327Z,23.90
2023-03-22T03:58:28.296Z,23.30
2023-03-22T03:59:28.298Z,23.70
2023-03-22T04:00:28.275Z,24.50
2023-03-22T04:01:28.286Z,23.00
2023-03-22T04:02:28.287Z,24.60
2023-03-22T04:03:28.256Z,27.20
2023-03-22T04:04:28.339Z,27.20
2023-03-22T04:05:28.210Z,28.20
2023-03-22T04:06:28.369Z,30.00
2023-03-22T04:07:28.216Z,27.90
2023-03-22T04:08:28.418Z,28.10
2023-03-22T04:09:28.154Z,29.80
2023-03-22T04:10:28.150Z,28.40
2023-03-22T04:11:28.153Z,31.10
2023-03-22T04:12:28.119Z,34.00
2023-03-22T04:13:28.126Z,36.40
2023-03-22T04:14:28.092Z,32.30
2023-03-22T04:15:28.082Z,37.20
2023-03-22T04:16:28.104Z,39.90
2023-03-22T04:17:28.057Z,36.40
2023-03-22T04:18:28.036Z,37.30
2023-03-22T04:19:28.062Z,41.10
2023-03-22T04:20:28.018Z,38.30
2023-03-22T04:21:28.013Z,41.50
2023-03-22T04:22:28.002Z,42.20
2023-03-22T04:23:28.017Z,44.00
2023-03-22T04:24:27.990Z,39.40
2023-03-22T04:25:27.990Z,40.70
2023-03-22T04:26:27.955Z,39.80
2023-03-22T04:27:27.921Z,43.70
2023-03-22T04:28:27.916Z,42.00
2023-03-22T04:29:27.898Z,43.20
2023-03-22T04:30:27.898Z,36.50
2023-03-22T04:31:27.966Z,35.70
2023-03-22T04:32:27.853Z,38.90
2023-03-22T04:33:27.859Z,39.70
2023-03-22T04:34:27.837Z,39.70
2023-03-22T04:35:27.842Z,38.70
2023-03-22T04:36:27.814Z,40.00
2023-03-22T04:37:27.814Z,42.20
2023-03-22T04:38:27.778Z,45.20
2023-03-22T04:39:27.774Z,53.50
2023-03-22T04:40:27.774Z,53.90
2023-03-22T04:41:29.455Z,59.50
2023-03-22T04:42:27.732Z,56.50
2023-03-22T04:43:27.752Z,53.10
2023-03-22T04:44:27.709Z,59.90
2023-03-22T04:45:27.690Z,62.70
2023-03-22T04:46:27.761Z,69.50
2023-03-22T04:47:27.660Z,73.20
2023-03-22T04:48:27.657Z,70.70
2023-03-22T04:49:27.666Z,69.50
2023-03-22T04:50:27.625Z,69.70
2023-03-22T04:51:27.634Z,77.10
2023-03-22T04:52:27.607Z,78.90
2023-03-22T04:53:27.750Z,80.10
2023-03-22T04:54:27.591Z,67.90
2023-03-22T04:55:27.660Z,69.20
2023-03-22T04:56:27.564Z,70.00
2023-03-22T04:57:27.554Z,73.10
2023-03-22T04:58:27.536Z,67.10
2023-03-22T04:59:27.507Z,73.70
2023-03-22T05:00:27.525Z,75.30
2023-03-22T05:01:27.548Z,66.10
2023-03-22T05:02:27.501Z,68.00
2023-03-22T05:03:27.460Z,71.20
2023-03-22T05:04:27.446Z,78.00
2023-03-22T05:05:27.453Z,61.10
2023-03-22T05:06:27.437Z,61.00
2023-03-22T05:07:27.446Z,65.50
2023-03-22T05:08:27.400Z,70.30
2023-03-22T05:09:27.386Z,74.60
2023-03-22T05:10:27.403Z,76.80
2023-03-22T05:11:27.372Z,84.50
2023-03-22T05:12:27.350Z,84.30
2023-03-22T05:13:27.382Z,76.00
2023-03-22T05:14:27.425Z,88.20
2023-03-22T05:15:27.307Z,85.10
2023-03-22T05:16:27.359Z,86.40
2023-03-22T05:17:27.290Z,91.10
2023-03-22T05:18:27.532Z,93.10
2023-03-22T05:19:27.304Z,97.70
2023-03-22T05:20:27.305Z,104.50
2023-03-22T05:21:27.256Z,97.20
2023-03-22T05:22:27.229Z,101.40
2023-03-22T05:23:27.254Z,107.80
2023-03-22T05:24:27.207Z,106.80
2023-03-22T05:25:27.239Z,109.10
2023-03-22T05:26:27.172Z,103.80
2023-03-22T05:27:27.167Z,107.40
2023-03-22T05:28:27.150Z,97.60
2023-03-22T05:29:27.143Z,96.60
2023-03-22T05:30:27.140Z,95.10
2023-03-22T05:31:27.198Z,100.70
2023-03-22T05:32:27.102Z,102.50
2023-03-22T05:33:27.100Z,86.40
2023-03-22T05:34:27.104Z,94.30
2023-03-22T05:35:27.109Z,95.00
2023-03-22T05:36:27.053Z,92.70
2023-03-22T05:37:27.071Z,99.60
2023-03-22T05:38:27.037Z,95.70
2023-03-22T05:39:27.009Z,86.20
2023-03-22T05:40:27.804Z,90.60
2023-03-22T05:41:26.985Z,82.80
2023-03-22T05:42:27.001Z,79.00
2023-03-22T05:43:26.994Z,90.80
2023-03-22T05:44:26.952Z,83.50
2023-03-22T05:48:31.467Z,81.70
2023-03-22T05:49:32.423Z,69.30
2023-03-22T05:50:32.413Z,61.90
2023-03-22T05:51:32.421Z,68.20
2023-03-22T05:52:32.394Z,63.50
2023-03-22T05:53:32.405Z,61.50
2023-03-22T05:54:32.482Z,62.00
2023-03-22T05:55:32.355Z,59.70
2023-03-22T05:56:32.344Z,52.10
2023-03-22T05:57:32.332Z,53.40
2023-03-22T05:58:32.358Z,52.70
2023-03-22T05:59:32.351Z,46.60
2023-03-22T06:00:32.311Z,45.20
2023-03-22T06:01:32.315Z,43.60
2023-03-22T06:02:32.264Z,42.70
2023-03-22T06:03:32.293Z,39.40
2023-03-22T06:04:32.243Z,36.80
2023-03-22T06:08:02.367Z,31.40
2023-03-22T06:09:10.458Z,29.60
2023-03-22T06:09:56.511Z,30.30
2023-03-22T06:10:56.483Z,31.00
2023-03-22T06:11:56.476Z,27.20
2023-03-22T06:12:56.471Z,27.60
2023-03-22T06:13:56.473Z,25.40
2023-03-22T06:14:56.435Z,26.80
2023-03-22T06:15:56.421Z,23.30
2023-03-22T06:16:56.437Z,25.00
2023-03-22T06:17:56.461Z,22.80
2023-03-22T06:18:56.372Z,22.00
2023-03-22T06:19:56.394Z,20.90
2023-03-22T06:20:56.360Z,20.70
2023-03-22T06:21:56.342Z,16.90
2023-03-22T06:22:56.344Z,19.10
2023-03-22T06:23:56.315Z,18.00
2023-03-22T06:24:56.300Z,17.60
2023-03-22T06:25:56.328Z,17.50
2023-03-22T06:26:56.267Z,16.10
2023-03-22T06:27:56.260Z,17.60
2023-03-22T06:28:56.251Z,16.40
2023-03-22T06:29:56.231Z,17.10
2023-03-22T06:30:56.325Z,16.20
2023-03-22T06:31:56.255Z,15.50
2023-03-22T06:32:56.196Z,15.40
2023-03-22T06:33:56.184Z,15.40
2023-03-22T06:34:56.195Z,14.90
2023-03-22T06:35:56.237Z,14.60
2023-03-22T06:36:56.136Z,15.70
2023-03-22T06:37:56.160Z,13.60
2023-03-22T06:38:56.121Z,13.90
2023-03-22T06:39:56.106Z,14.20
2023-03-22T06:40:56.089Z,14.00
2023-03-22T06:41:56.082Z,13.90
2023-03-22T06:42:56.053Z,11.90
2023-03-22T06:43:56.066Z,15.10
2023-03-22T06:44:56.040Z,14.20
2023-03-22T06:45:56.044Z,11.50
2023-03-22T06:46:56.002Z,11.10
2023-03-22T06:47:56.033Z,11.90
2023-03-22T06:48:55.991Z,12.80
2023-03-22T06:49:56.005Z,12.10
2023-03-22T06:50:55.970Z,10.50
2023-03-22T06:51:55.944Z,10.60
2023-03-22T06:52:55.938Z,9.60
2023-03-22T06:53:55.922Z,11.10
2023-03-22T06:54:55.894Z,9.50
2023-03-22T06:55:55.926Z,10.80
2023-03-22T06:56:55.879Z,9.80
2023-03-22T06:57:55.865Z,9.60
2023-03-22T06:58:55.848Z,9.40
2023-03-22T06:59:55.857Z,10.20
2023-03-22T07:00:55.927Z,10.40
2023-03-22T07:01:55.847Z,10.00
2023-03-22T07:02:55.809Z,9.10
2023-03-22T07:03:55.792Z,9.90
2023-03-22T07:06:23.069Z,9.30
2023-03-22T07:06:28.476Z,10.30
2023-03-22T07:07:28.502Z,9.70
2023-03-22T07:08:28.438Z,9.50
2023-03-22T07:09:29.050Z,8.40
2023-03-22T07:10:29.057Z,9.10
2023-03-22T07:11:28.411Z,8.70
2023-03-22T07:12:28.406Z,8.60
2023-03-22T07:13:28.418Z,9.30
2023-03-22T07:14:28.381Z,8.90
2023-03-22T07:15:28.358Z,9.00
2023-03-22T07:16:28.411Z,8.80
2023-03-22T07:17:28.346Z,9.80
2023-03-22T07:18:28.321Z,8.30
2023-03-22T07:19:28.358Z,9.80
2023-03-22T07:20:28.302Z,9.00
2023-03-22T07:21:28.284Z,9.10
2023-03-22T07:22:28.283Z,9.90
2023-03-22T07:23:28.264Z,8.20
2023-03-22T07:24:28.253Z,8.90
2023-03-22T07:25:28.268Z,9.00
2023-03-22T07:26:28.216Z,9.60
2023-03-22T07:27:28.224Z,8.60
2023-03-22T07:28:28.203Z,9.40
2023-03-22T07:29:28.188Z,8.20
2023-03-22T07:30:28.323Z,9.70
2023-03-22T07:31:28.195Z,8.90
2023-03-22T07:32:28.192Z,9.20
2023-03-22T07:33:28.138Z,9.00
2023-03-22T07:34:28.131Z,8.90
2023-03-22T07:35:28.133Z,9.30
2023-03-22T07:36:28.093Z,8.70
2023-03-22T07:37:28.118Z,9.10
2023-03-22T07:38:28.081Z,7.50
2023-03-22T07:39:28.077Z,8.00
2023-03-22T07:40:28.046Z,8.60
2023-03-22T07:41:28.029Z,8.60
2023-03-22T07:42:28.029Z,9.60
2023-03-22T07:43:28.055Z,8.70
2023-03-22T07:44:28.015Z,9.20
2023-03-22T07:45:28.046Z,8.90
2023-03-22T07:46:28.007Z,8.20
2023-03-22T07:47:40.277Z,8.70
2023-03-22T07:48:27.996Z,7.10
2023-03-22T07:49:27.980Z,7.40
2023-03-22T07:50:27.942Z,8.20
2023-03-22T07:51:27.909Z,10.10
2023-03-22T07:52:27.939Z,7.20
2023-03-22T07:53:27.905Z,8.60
2023-03-22T07:54:33.939Z,7.30
2023-03-22T07:55:27.904Z,8.90
2023-03-22T07:56:27.853Z,7.40
2023-03-22T07:57:27.877Z,8.30
2023-03-22T07:58:27.829Z,8.40
2023-03-22T07:59:27.843Z,8.10
2023-03-22T08:00:27.806Z,9.00
2023-03-22T08:01:27.843Z,7.80
2023-03-22T08:02:27.854Z,7.20
2023-03-22T08:03:27.799Z,8.10
2023-03-22T08:04:27.771Z,7.50
2023-03-22T08:05:27.750Z,7.80
2023-03-22T08:06:27.722Z,7.80
2023-03-22T08:07:27.760Z,8.60
2023-03-22T08:08:27.708Z,8.30
2023-03-22T08:09:27.715Z,7.80
2023-03-22T08:10:27.749Z,7.20
2023-03-22T08:11:27.673Z,7.50
2023-03-22T08:12:27.665Z,7.80
2023-03-22T08:13:27.703Z,7.40
2023-03-22T08:14:36.275Z,7.30
2023-03-22T08:15:27.637Z,6.40
2023-03-22T08:16:27.616Z,8.50
2023-03-22T08:17:27.604Z,7.30
2023-03-22T08:18:27.588Z,6.60
2023-03-22T08:19:27.616Z,7.00
2023-03-22T08:20:27.679Z,7.20
2023-03-22T08:21:27.538Z,7.20
2023-03-22T08:22:27.536Z,7.00
2023-03-22T08:23:40.384Z,7.60
2023-03-22T08:24:27.526Z,7.80
2023-03-22T08:25:27.518Z,7.20
2023-03-22T08:26:27.487Z,7.60
2023-03-22T08:27:27.482Z,6.40
2023-03-22T08:28:27.499Z,8.00
2023-03-22T08:29:27.445Z,7.70
2023-03-22T08:30:27.530Z,7.30
2023-03-22T08:31:27.544Z,7.40
2023-03-22T08:32:27.431Z,7.20
2023-03-22T08:33:27.435Z,8.90
2023-03-22T08:34:27.399Z,8.80
2023-03-22T08:35:27.402Z,8.10
2023-03-22T08:36:27.388Z,8.40
2023-03-22T08:37:27.386Z,7.80
2023-03-22T08:38:27.365Z,8.30
2023-03-22T08:39:27.329Z,8.40
2023-03-22T08:40:27.502Z,8.30
2023-03-22T08:41:27.312Z,7.90
2023-03-22T08:42:27.313Z,8.10
2023-03-22T08:43:27.333Z,7.90
2023-03-22T08:44:27.279Z,8.70
2023-03-22T08:45:27.256Z,7.90
2023-03-22T08:46:27.289Z,7.80
2023-03-22T08:47:27.236Z,7.90
2023-03-22T08:48:27.257Z,9.10
2023-03-22T08:49:27.242Z,9.30
2023-03-22T08:50:27.204Z,8.20
2023-03-22T08:51:27.216Z,8.30
2023-03-22T08:52:27.197Z,7.90
2023-03-22T08:53:27.170Z,8.20
2023-03-22T08:54:27.158Z,7.40
2023-03-22T08:55:27.172Z,7.40
2023-03-22T08:56:27.129Z,7.60
2023-03-22T08:57:27.111Z,7.90
2023-03-22T08:58:27.113Z,8.80
2023-03-22T08:59:27.137Z,7.50
2023-03-22T09:00:33.987Z,9.60
2023-03-22T09:01:27.272Z,8.00
2023-03-22T09:02:27.078Z,8.30
2023-03-22T09:03:27.072Z,7.40
2023-03-22T09:04:27.059Z,8.50
2023-03-22T09:05:27.049Z,7.40
2023-03-22T09:06:27.007Z,8.30
2023-03-22T09:07:27.020Z,7.80
2023-03-22T09:08:27.009Z,8.80
2023-03-22T09:09:26.989Z,8.10
2023-03-22T09:10:26.958Z,7.60
2023-03-22T09:11:26.947Z,8.00
2023-03-22T09:12:27.055Z,7.40
2023-03-22T09:13:26.990Z,7.70
2023-03-22T09:14:26.995Z,8.10
2023-03-22T09:15:26.903Z,9.10
2023-03-22T09:16:26.944Z,7.70
2023-03-22T09:17:47.957Z,8.40
2023-03-22T09:18:26.904Z,7.10
2023-03-22T09:19:26.900Z,7.90
2023-03-22T09:20:26.854Z,9.30
2023-03-22T09:21:26.839Z,7.20
2023-03-22T09:22:26.831Z,7.80
2023-03-22T09:23:26.831Z,6.90
2023-03-22T09:24:26.798Z,7.20
2023-03-22T09:25:26.831Z,7.50
2023-03-22T09:26:26.887Z,7.50
2023-03-22T09:27:26.770Z,6.80
2023-03-22T09:28:26.835Z,7.00
2023-03-22T09:29:26.757Z,7.10
2023-03-22T09:30:26.732Z,7.30
2023-03-22T09:31:26.834Z,6.20
2023-03-22T09:32:26.744Z,7.20
2023-03-22T09:33:26.773Z,7.10
2023-03-22T09:34:26.734Z,7.20
2023-03-22T09:35:26.753Z,7.10
2023-03-22T09:36:26.678Z,7.50
2023-03-22T09:37:26.703Z,6.60
2023-03-22T09:38:26.640Z,7.90
2023-03-22T09:39:26.630Z,7.70
2023-03-22T09:40:26.619Z,8.40
2023-03-22T09:41:26.607Z,8.40
2023-03-22T09:42:26.589Z,6.80
2023-03-22T09:43:26.607Z,7.50
2023-03-22T09:44:26.572Z,7.40
2023-03-22T09:45:26.558Z,8.00
2023-03-22T09:46:26.600Z,6.90
2023-03-22T09:47:30.768Z,8.10
2023-03-22T09:48:26.630Z,6.30
2023-03-22T09:49:26.586Z,6.10
2023-03-22T09:50:26.579Z,6.70
2023-03-22T09:51:26.516Z,6.40
2023-03-22T09:52:26.536Z,6.70
2023-03-22T09:53:26.496Z,6.00
2023-03-22T09:54:26.468Z,6.30
2023-03-22T09:55:26.506Z,6.40
2023-03-22T09:56:26.439Z,6.10
2023-03-22T09:57:26.439Z,6.70
2023-03-22T09:58:26.451Z,6.90
2023-03-22T09:59:26.406Z,6.70
2023-03-22T10:00:26.477Z,7.80
2023-03-22T10:01:26.646Z,7.20
2023-03-22T10:02:26.410Z,6.90
2023-03-22T10:03:26.379Z,7.20
2023-03-22T10:04:26.556Z,8.00
2023-03-22T10:05:27.109Z,6.90
2023-03-22T10:06:28.214Z,6.80
2023-03-22T10:07:26.352Z,6.50
2023-03-22T10:08:26.310Z,6.70
2023-03-22T10:09:26.295Z,7.10
2023-03-22T10:10:26.290Z,7.40
2023-03-22T10:11:26.273Z,7.20
2023-03-22T10:12:26.308Z,8.00
2023-03-22T10:13:26.295Z,6.70
2023-03-22T10:14:26.239Z,8.00
2023-03-22T10:15:26.235Z,6.90
2023-03-22T10:16:26.260Z,7.30
2023-03-22T10:17:26.203Z,7.30
2023-03-22T10:18:26.205Z,7.60
2023-03-22T10:19:26.266Z,9.20
2023-03-22T10:20:26.172Z,6.40
2023-03-22T10:21:26.159Z,7.20
2023-03-22T10:22:26.144Z,6.60
2023-03-22T10:23:26.163Z,7.40
2023-03-22T10:24:26.159Z,7.00
2023-03-22T10:25:26.155Z,6.80
2023-03-22T10:26:26.120Z,6.80
2023-03-22T10:27:26.113Z,6.30
2023-03-22T10:28:26.103Z,7.30
2023-03-22T10:29:26.084Z,6.60
2023-03-22T10:30:26.081Z,6.40
2023-03-22T10:31:26.124Z,5.60
2023-03-22T10:32:26.026Z,6.60
2023-03-22T10:33:26.038Z,6.00
2023-03-22T10:34:26.043Z,6.50
2023-03-22T10:35:26.089Z,6.00
2023-03-22T10:36:26.000Z,6.10
2023-03-22T10:37:26.061Z,6.20
2023-03-22T10:38:26.025Z,6.40
2023-03-22T10:39:25.975Z,6.90
2023-03-22T10:40:25.956Z,6.30
2023-03-22T10:41:25.936Z,6.80
2023-03-22T10:42:25.950Z,6.50
2023-03-22T10:43:25.952Z,6.70
2023-03-22T10:44:25.895Z,6.30
2023-03-22T10:45:25.892Z,7.70
2023-03-22T10:46:25.893Z,6.50
2023-03-22T10:47:25.869Z,6.10
2023-03-22T10:48:25.883Z,6.60
2023-03-22T10:49:25.910Z,7.10
2023-03-22T10:50:25.841Z,6.90
2023-03-22T10:51:25.842Z,6.40
2023-03-22T10:52:25.814Z,6.20
2023-03-22T10:53:25.806Z,6.20
2023-03-22T10:54:26.250Z,5.60
2023-03-22T10:55:25.817Z,6.80
2023-03-22T10:56:25.787Z,6.10
2023-03-22T10:57:25.786Z,6.80
2023-03-22T10:58:25.766Z,6.30
2023-03-22T10:59:25.745Z,6.70
2023-03-22T11:00:25.775Z,6.40
2023-03-22T11:01:25.995Z,6.70
2023-03-22T11:02:25.877Z,6.40
2023-03-22T11:03:25.734Z,7.40
2023-03-22T11:04:25.695Z,6.10
2023-03-22T11:05:25.694Z,6.30
2023-03-22T11:06:25.684Z,6.20
2023-03-22T11:07:25.692Z,5.60
2023-03-22T11:08:25.656Z,5.10
2023-03-22T11:09:25.636Z,5.90
2023-03-22T11:10:25.702Z,5.60
2023-03-22T11:11:25.631Z,6.00
2023-03-22T11:12:25.610Z,5.90
2023-03-22T11:13:25.637Z,5.80
2023-03-22T11:14:25.574Z,5.60
2023-03-22T11:15:25.572Z,6.40
2023-03-22T11:16:25.608Z,7.50
2023-03-22T11:17:25.571Z,6.10
2023-03-22T11:18:25.536Z,6.50
2023-03-22T11:19:25.578Z,6.20
2023-03-22T11:20:25.590Z,5.60
2023-03-22T11:21:25.512Z,6.30
2023-03-22T11:22:25.512Z,6.00
2023-03-22T11:23:25.508Z,5.60
2023-03-22T11:24:25.482Z,6.20
2023-03-22T11:25:25.485Z,6.40
2023-03-22T11:27:25.465Z,5.80
2023-03-22T11:28:25.431Z,5.50
2023-03-22T11:29:25.429Z,5.40
2023-03-22T11:30:25.447Z,6.30
2023-03-22T11:31:25.472Z,6.20
2023-03-22T11:32:25.472Z,5.60
2023-03-22T11:33:25.372Z,6.10
2023-03-22T11:34:25.364Z,5.30
2023-03-22T11:35:25.391Z,5.80
2023-03-22T11:36:25.369Z,5.30
2023-03-22T11:37:25.361Z,5.80
2023-03-22T11:38:25.311Z,5.80
2023-03-22T11:39:25.400Z,5.80
2023-03-22T11:40:25.320Z,6.60
2023-03-22T11:41:25.333Z,6.10
2023-03-22T11:42:25.282Z,5.10
2023-03-22T11:43:25.299Z,5.90
2023-03-22T11:44:25.271Z,5.70
2023-03-22T11:45:25.240Z,7.10
2023-03-22T11:46:25.278Z,5.80
2023-03-22T11:47:25.263Z,5.00
2023-03-22T11:48:25.315Z,5.50
2023-03-22T11:49:25.257Z,5.50
2023-03-22T11:50:25.211Z,6.10
2023-03-22T11:51:25.194Z,6.40
2023-03-22T11:52:25.177Z,5.70
2023-03-22T11:53:25.194Z,6.20
2023-03-22T11:54:25.150Z,5.80
2023-03-22T11:55:25.170Z,6.30
2023-03-22T11:56:25.152Z,6.30
2023-03-22T11:57:25.162Z,5.20
2023-03-22T11:58:25.123Z,6.00
2023-03-22T11:59:25.111Z,6.00
2023-03-22T12:00:25.097Z,6.10
2023-03-22T12:01:25.142Z,7.10
2023-03-22T12:02:25.244Z,6.20
2023-03-22T12:03:25.213Z,5.80
2023-03-22T12:04:25.121Z,5.30
2023-03-22T12:05:25.068Z,6.20
2023-03-22T12:06:25.101Z,6.00
2023-03-22T12:07:25.056Z,12.60
2023-03-22T12:08:25.065Z,34.40
2023-03-22T12:09:25.015Z,16.20
2023-03-22T12:10:25.059Z,7.30
2023-03-22T12:11:25.040Z,7.10
2023-03-22T12:12:25.039Z,6.30
2023-03-22T12:13:25.074Z,8.90
2023-03-22T12:14:25.070Z,6.30
2023-03-22T12:15:24.952Z,6.00
2023-03-22T12:16:25.264Z,6.00
2023-03-22T12:17:24.910Z,6.20
2023-03-22T12:18:24.976Z,5.90
2023-03-22T12:19:24.949Z,6.00
2023-03-22T12:20:24.881Z,6.30
2023-03-22T12:21:24.871Z,7.40
2023-03-22T12:22:24.854Z,6.00
2023-03-22T12:23:24.847Z,6.50
2023-03-22T12:24:24.830Z,6.20
2023-03-22T12:25:25.334Z,6.40
2023-03-22T12:26:24.817Z,7.20
2023-03-22T12:27:24.834Z,6.90
2023-03-22T12:28:24.799Z,6.10
2023-03-22T12:29:24.768Z,6.40
2023-03-22T12:30:24.771Z,6.20
2023-03-22T12:31:24.870Z,6.90
2023-03-22T12:32:24.786Z,6.20
2023-03-22T12:33:24.758Z,6.30
2023-03-22T12:34:24.711Z,6.70
2023-03-22T12:35:24.730Z,5.60
2023-03-22T12:36:24.757Z,5.90
2023-03-22T12:37:24.702Z,6.80
2023-03-22T12:38:24.665Z,7.00
2023-03-22T12:39:24.649Z,5.90
2023-03-22T12:40:24.657Z,6.50
2023-03-22T12:41:24.634Z,5.90
2023-03-22T12:42:24.632Z,6.00
2023-03-22T12:43:24.637Z,6.10
2023-03-22T12:44:24.623Z,6.60
2023-03-22T12:45:24.582Z,6.00
2023-03-22T12:46:24.601Z,6.50
2023-03-22T12:47:24.621Z,6.60
2023-03-22T12:48:24.675Z,6.40
2023-03-22T12:49:24.555Z,7.10
2023-03-22T12:50:24.521Z,6.70
2023-03-22T12:51:24.529Z,6.20
2023-03-22T12:52:26.375Z,6.10
2023-03-22T12:53:24.506Z,6.20
2023-03-22T12:54:24.483Z,5.80
2023-03-22T12:55:24.483Z,6.90
2023-03-22T12:56:24.450Z,7.20
2023-03-22T12:57:24.448Z,7.20
2023-03-22T12:58:24.441Z,6.60
2023-03-22T12:59:24.417Z,6.80
2023-03-22T13:00:24.416Z,6.10
2023-03-22T13:01:24.459Z,6.90
2023-03-22T13:02:24.404Z,6.90
2023-03-22T13:03:24.450Z,6.10
2023-03-22T13:04:24.349Z,6.40
2023-03-22T13:05:24.331Z,6.80
2023-03-22T13:06:24.303Z,7.20
2023-03-22T13:07:24.332Z,6.80
2023-03-22T13:08:24.290Z,6.00
2023-03-22T13:09:24.274Z,6.50
2023-03-22T13:10:24.269Z,7.10
2023-03-22T13:11:24.267Z,6.30
2023-03-22T13:12:24.240Z,7.50
2023-03-22T13:13:24.397Z,6.90
2023-03-22T13:14:24.219Z,8.00
2023-03-22T13:15:31.659Z,7.40
2023-03-22T13:16:24.312Z,6.70
2023-03-22T13:17:24.435Z,5.80
2023-03-22T13:18:24.179Z,5.00